createdAt,value
2018-12-15T04:55:40.384Z,7.30
2018-12-15T04:58:07.982Z,9.47
2018-12-15T05:00:36.549Z,6.97
2018-12-15T05:03:05.196Z,7.85
2018-12-15T05:05:32.925Z,7.73
2018-12-15T05:08:01.168Z,7.37
2018-12-15T05:10:28.961Z,8.55
2018-12-15T05:12:56.654Z,7.57
2018-12-15T05:15:25.005Z,9.23
2018-12-15T05:17:52.943Z,8.00
2018-12-15T05:20:20.911Z,8.97
2018-12-15T05:22:48.591Z,6.70
2018-12-15T05:25:16.205Z,7.43
2018-12-15T05:27:43.917Z,6.47
2018-12-15T05:30:12.199Z,7.23
2018-12-15T05:32:39.872Z,6.10
2018-12-15T05:35:07.946Z,8.27
2018-12-15T05:37:35.854Z,6.87
2018-12-15T05:40:04.276Z,8.40
2018-12-15T05:42:32.058Z,7.97
2018-12-15T05:45:00.210Z,8.37
2018-12-15T05:47:27.875Z,9.53
2018-12-15T05:49:56.079Z,7.90
2018-12-15T05:52:23.999Z,7.70
2018-12-15T05:54:51.654Z,7.17
2018-12-15T05:57:19.359Z,9.67
2018-12-15T05:59:47.300Z,9.17
2018-12-15T06:02:16.896Z,8.55
2018-12-15T06:04:44.508Z,8.30
2018-12-15T06:07:12.073Z,6.30
2018-12-15T06:09:39.744Z,7.53
2018-12-15T06:12:07.423Z,9.20
2018-12-15T06:14:35.120Z,5.87
2018-12-15T06:17:02.780Z,8.40
2018-12-15T06:19:30.484Z,7.73
2018-12-15T06:21:58.187Z,9.70
2018-12-15T06:24:25.914Z,8.33
2018-12-15T06:26:53.982Z,7.77
2018-12-15T06:29:22.195Z,7.70
2018-12-15T06:31:50.282Z,8.20
2018-12-15T06:34:18.300Z,8.90
2018-12-15T06:36:45.945Z,10.07
2018-12-15T06:39:14.134Z,8.43
2018-12-15T06:41:42.059Z,8.33
2018-12-15T06:44:11.598Z,8.27
2018-12-15T06:46:39.739Z,9.83
2018-12-15T06:49:07.535Z,8.37
2018-12-15T06:51:35.222Z,7.53
2018-12-15T06:54:03.663Z,7.43
2018-12-15T06:56:31.488Z,9.37
2018-12-15T06:58:59.170Z,8.90
2018-12-15T07:01:26.793Z,8.37
2018-12-15T07:03:54.509Z,6.23
2018-12-15T07:06:23.087Z,9.27
2018-12-15T07:08:50.858Z,7.50
2018-12-15T07:11:18.954Z,7.07
2018-12-15T07:13:47.309Z,7.78
2018-12-15T07:16:15.453Z,7.83
2018-12-15T07:18:44.923Z,8.53
2018-12-15T07:21:12.829Z,8.25
2018-12-15T07:23:41.527Z,8.93
2018-12-15T07:26:10.059Z,6.53
2018-12-15T07:28:38.579Z,7.05
2018-12-15T07:31:07.428Z,6.67
2018-12-15T07:33:36.587Z,9.03
2018-12-15T07:36:08.649Z,8.80
2018-12-15T07:38:37.637Z,6.62
2018-12-15T07:41:05.342Z,5.28
2018-12-15T07:43:33.175Z,7.60
2018-12-15T07:46:01.563Z,5.87
2018-12-15T07:48:30.116Z,6.57
2018-12-15T07:50:58.542Z,6.57
2018-12-15T07:53:26.301Z,7.67
2018-12-15T07:55:54.066Z,6.90
2018-12-15T07:58:22.221Z,6.17
2018-12-15T08:00:50.525Z,7.15
2018-12-15T08:03:18.163Z,5.92
2018-12-15T08:05:46.789Z,6.40
2018-12-15T08:08:15.341Z,7.80
2018-12-15T08:10:48.374Z,7.03
2018-12-15T08:13:22.840Z,7.50
2018-12-15T08:15:51.276Z,6.43
2018-12-15T08:18:21.563Z,6.90
2018-12-15T08:20:49.249Z,7.60
2018-12-15T08:23:16.879Z,7.40
2018-12-15T08:25:44.863Z,7.07
2018-12-15T08:28:15.549Z,8.17
2018-12-15T08:30:43.371Z,8.07
2018-12-15T08:33:12.044Z,8.73
2018-12-15T08:35:39.704Z,9.90
2018-12-15T08:38:07.454Z,10.40
2018-12-15T08:40:35.154Z,10.20
2018-12-15T08:43:03.716Z,8.30
2018-12-15T08:45:32.301Z,11.47
2018-12-15T08:48:01.492Z,10.67
2018-12-15T08:50:29.488Z,11.30
2018-12-15T08:52:57.874Z,10.10
2018-12-15T08:55:26.038Z,10.47
2018-12-15T08:57:53.947Z,9.30
2018-12-15T09:00:21.635Z,12.97
2018-12-15T09:02:49.647Z,9.37
2018-12-15T09:05:17.575Z,11.73
2018-12-15T09:07:45.705Z,12.00
2018-12-15T09:10:13.344Z,10.53
2018-12-15T09:12:41.313Z,12.20
2018-12-15T09:15:09.258Z,11.73
2018-12-15T09:17:36.962Z,9.97
2018-12-15T09:20:06.073Z,12.30
2018-12-15T09:22:33.791Z,9.73
2018-12-15T09:25:01.466Z,12.63
2018-12-15T09:27:29.216Z,11.47
2018-12-15T09:29:57.349Z,12.50
2018-12-15T09:32:24.944Z,10.63
2018-12-15T09:34:52.734Z,12.10
2018-12-15T09:37:20.431Z,11.37
2018-12-15T09:39:48.362Z,13.30
2018-12-15T09:42:16.356Z,11.80
2018-12-15T09:44:44.042Z,11.40
2018-12-15T09:47:11.728Z,13.70
2018-12-15T09:49:39.584Z,14.13
2018-12-15T09:52:07.215Z,9.87
2018-12-15T09:54:34.848Z,13.23
2018-12-15T09:57:02.601Z,11.23
2018-12-15T09:59:30.626Z,14.23
2018-12-15T10:01:58.290Z,11.70
2018-12-15T10:04:26.008Z,10.10
2018-12-15T10:06:54.336Z,13.30
2018-12-15T10:09:21.949Z,11.30
2018-12-15T10:11:49.607Z,12.87
2018-12-15T10:14:17.672Z,15.10
2018-12-15T10:16:46.212Z,11.27
2018-12-15T10:19:14.742Z,11.60
2018-12-15T10:21:42.461Z,13.03
2018-12-15T10:24:10.169Z,12.40
2018-12-15T10:26:37.929Z,11.40
2018-12-15T10:29:08.516Z,7.40
2018-12-15T10:31:41.425Z,11.17
2018-12-15T10:34:09.897Z,10.07
2018-12-15T10:36:37.728Z,9.07
2018-12-15T10:39:07.671Z,11.77
2018-12-15T10:41:36.045Z,10.53
2018-12-15T10:44:04.422Z,8.83
2018-12-15T10:46:32.084Z,11.07
2018-12-15T10:49:00.220Z,11.77
2018-12-15T10:51:28.230Z,10.67
2018-12-15T10:53:56.858Z,10.47
2018-12-15T10:56:25.169Z,10.83
2018-12-15T10:58:53.629Z,10.10
2018-12-15T11:01:23.111Z,9.67
2018-12-15T11:03:51.122Z,9.70
2018-12-15T11:06:19.449Z,11.87
2018-12-15T11:08:47.144Z,11.10
2018-12-15T11:11:16.260Z,10.20
2018-12-15T11:13:49.990Z,10.97
2018-12-15T11:16:17.948Z,11.77
2018-12-15T11:18:45.775Z,11.63
2018-12-15T11:21:13.395Z,11.60
2018-12-15T11:23:41.233Z,10.33
2018-12-15T11:26:09.169Z,10.50
2018-12-15T11:28:36.894Z,10.40
2018-12-15T11:31:04.591Z,8.20
2018-12-15T11:33:32.363Z,9.30
2018-12-15T11:36:00.944Z,9.53
2018-12-15T11:38:28.567Z,10.83
2018-12-15T11:40:56.371Z,12.37
2018-12-15T11:43:24.135Z,10.60
2018-12-15T11:45:52.364Z,9.70
2018-12-15T11:48:20.086Z,11.07
2018-12-15T11:50:48.053Z,9.93
2018-12-15T11:53:16.118Z,11.73
2018-12-15T11:55:44.665Z,10.30
2018-12-15T11:58:14.189Z,9.13
2018-12-15T12:00:43.219Z,10.83
2018-12-15T12:03:11.487Z,10.83
2018-12-15T12:05:39.303Z,10.77
2018-12-15T12:08:07.078Z,9.33
2018-12-15T12:10:35.759Z,10.00
2018-12-15T12:13:03.434Z,9.97
2018-12-15T12:15:31.168Z,10.20
2018-12-15T12:17:58.969Z,10.20
2018-12-15T12:20:26.902Z,8.23
2018-12-15T12:22:54.989Z,8.83
2018-12-15T12:25:22.643Z,7.70
2018-12-15T12:27:50.899Z,10.63
2018-12-15T12:30:18.837Z,9.03
2018-12-15T12:32:46.531Z,9.23
2018-12-15T12:35:15.235Z,10.60
2018-12-15T12:37:43.149Z,10.00
2018-12-15T12:40:10.875Z,8.30
2018-12-15T12:42:38.993Z,9.47
2018-12-15T12:45:07.121Z,10.00
2018-12-15T12:47:35.562Z,7.70
2018-12-15T12:50:03.405Z,7.50
2018-12-15T12:52:32.283Z,8.20
2018-12-15T12:55:00.214Z,8.40
2018-12-15T12:57:28.437Z,8.70
2018-12-15T12:59:57.741Z,8.10
2018-12-15T13:02:25.569Z,7.90
2018-12-15T13:04:53.331Z,7.83
2018-12-15T13:07:21.545Z,6.43
2018-12-15T13:09:50.702Z,6.80
2018-12-15T13:12:19.957Z,8.03
2018-12-15T13:14:48.630Z,7.93
2018-12-15T13:17:17.066Z,8.07
2018-12-15T13:19:44.878Z,9.20
2018-12-15T13:22:12.748Z,8.17
2018-12-15T13:24:40.497Z,5.97
2018-12-15T13:27:08.116Z,7.27
2018-12-15T13:29:35.915Z,7.27
2018-12-15T13:32:05.224Z,7.40
2018-12-15T13:34:33.265Z,7.37
2018-12-15T13:37:01.393Z,7.30
2018-12-15T13:39:29.620Z,9.00
2018-12-15T13:41:57.521Z,9.43
2018-12-15T13:44:26.195Z,9.47
2018-12-15T13:46:54.893Z,9.47
2018-12-15T13:49:23.000Z,8.43
2018-12-15T13:51:50.974Z,9.53
2018-12-15T13:54:19.019Z,9.20
2018-12-15T13:56:46.897Z,11.60
2018-12-15T13:59:14.860Z,8.60
2018-12-15T14:01:42.798Z,8.63
2018-12-15T14:04:10.948Z,9.67
2018-12-15T14:06:39.062Z,7.75
2018-12-15T14:09:08.320Z,9.50
2018-12-15T14:11:36.853Z,8.33
2018-12-15T14:14:05.053Z,8.40
2018-12-15T14:16:32.987Z,6.67
2018-12-15T14:19:00.786Z,8.20
2018-12-15T14:21:29.348Z,8.88
2018-12-15T14:23:57.627Z,7.50
2018-12-15T14:26:26.012Z,8.07
2018-12-15T14:28:54.906Z,6.70
2018-12-15T14:31:22.873Z,9.23
2018-12-15T14:33:51.815Z,8.13
2018-12-15T14:36:19.806Z,7.87
2018-12-15T14:38:48.729Z,8.55
2018-12-15T14:41:17.178Z,8.17
2018-12-15T14:43:45.272Z,8.03
2018-12-15T14:46:13.167Z,7.63
2018-12-15T14:48:41.095Z,8.17
2018-12-15T14:51:10.094Z,3.27
2018-12-15T14:53:37.918Z,7.23
2018-12-15T14:56:06.197Z,5.42
2018-12-15T14:58:34.213Z,5.40
2018-12-15T15:01:02.370Z,5.37
2018-12-15T15:03:30.616Z,6.95
2018-12-15T15:05:58.326Z,7.03
2018-12-15T15:08:26.757Z,7.40
2018-12-15T15:10:54.529Z,7.17
2018-12-15T15:13:22.176Z,6.53
2018-12-15T15:15:50.561Z,7.35
2018-12-15T15:18:18.624Z,6.78
2018-12-15T15:20:47.128Z,5.55
2018-12-15T15:23:14.754Z,4.33
2018-12-15T15:25:42.797Z,6.58
2018-12-15T15:28:10.477Z,6.28
2018-12-15T15:30:38.317Z,5.05
2018-12-15T15:33:06.043Z,5.80
2018-12-15T15:35:34.220Z,1.60
2018-12-15T15:38:02.427Z,4.83
2018-12-15T15:40:30.348Z,6.20
2018-12-15T15:42:58.293Z,4.50
2018-12-15T15:45:26.445Z,3.65
2018-12-15T15:47:54.858Z,4.12
2018-12-15T15:50:22.639Z,4.40
2018-12-15T15:52:50.803Z,4.55
2018-12-15T15:55:19.031Z,6.12
2018-12-15T15:57:46.777Z,6.05
2018-12-15T16:00:14.551Z,4.95
2018-12-15T16:02:42.306Z,5.95
2018-12-15T16:05:10.140Z,4.30
2018-12-15T16:07:38.011Z,4.75
2018-12-15T16:10:07.795Z,7.20
2018-12-15T16:12:35.488Z,5.85
2018-12-15T16:15:03.558Z,6.97
2018-12-15T16:17:31.250Z,5.78
2018-12-15T16:19:58.916Z,5.83
2018-12-15T16:22:27.019Z,5.05
2018-12-15T16:24:54.946Z,5.60
2018-12-15T16:27:23.053Z,6.00
2018-12-15T16:29:51.909Z,7.80
2018-12-15T16:32:20.249Z,6.03
2018-12-15T16:34:48.265Z,7.12
2018-12-15T16:37:16.186Z,5.53
2018-12-15T16:39:44.503Z,5.35
2018-12-15T16:42:13.263Z,6.03
2018-12-15T16:44:41.452Z,6.10
2018-12-15T16:47:09.824Z,7.75
2018-12-15T16:49:38.022Z,6.35
2018-12-15T16:52:06.306Z,5.83
2018-12-15T16:54:34.733Z,6.65
2018-12-15T16:57:03.217Z,6.85
2018-12-15T16:59:31.365Z,6.28
2018-12-15T17:01:59.816Z,7.85
2018-12-15T17:04:27.932Z,5.70
2018-12-15T17:06:57.645Z,8.30
2018-12-15T17:09:26.756Z,6.35
2018-12-15T17:11:55.350Z,7.80
2018-12-15T17:14:23.450Z,6.75
2018-12-15T17:16:51.551Z,6.17
2018-12-15T17:19:21.057Z,9.40
2018-12-15T17:21:49.260Z,7.78
2018-12-15T17:24:17.327Z,7.85
2018-12-15T17:26:45.660Z,6.70
2018-12-15T17:29:13.724Z,6.50
2018-12-15T17:31:41.902Z,6.70
2018-12-15T17:34:09.952Z,5.28
2018-12-15T17:36:37.985Z,5.95
2018-12-15T17:39:07.368Z,7.92
2018-12-15T17:41:35.807Z,6.40
2018-12-15T17:44:04.842Z,6.33
2018-12-15T17:46:34.336Z,6.22
2018-12-15T17:49:03.177Z,5.50
2018-12-15T17:51:31.097Z,4.50
2018-12-15T17:53:59.039Z,6.62
2018-12-15T17:56:27.003Z,7.42
2018-12-15T17:58:55.042Z,5.95
2018-12-15T18:01:23.175Z,6.67
2018-12-15T18:03:51.082Z,6.17
2018-12-15T18:06:19.104Z,5.53
2018-12-15T18:08:47.906Z,8.38
2018-12-15T18:11:16.314Z,9.50
2018-12-15T18:13:44.530Z,6.47
2018-12-15T18:16:12.397Z,6.53
2018-12-15T18:18:40.416Z,6.80
2018-12-15T18:21:10.003Z,9.15
2018-12-15T18:23:38.536Z,8.38
2018-12-15T18:26:07.421Z,7.55
2018-12-15T18:28:35.950Z,7.10
2018-12-15T18:31:04.972Z,7.05
2018-12-15T18:33:37.048Z,6.95
2018-12-15T18:36:03.785Z,6.47
2018-12-15T18:38:32.881Z,5.87
2018-12-15T18:41:00.781Z,6.97
2018-12-15T18:43:29.199Z,6.35
2018-12-15T18:45:58.350Z,6.05
2018-12-15T18:48:26.449Z,7.53
2018-12-15T18:50:54.551Z,7.60
2018-12-15T18:53:22.778Z,6.70
2018-12-15T18:55:51.587Z,6.50
2018-12-15T18:58:19.488Z,6.00
2018-12-15T19:00:48.472Z,8.50
2018-12-15T19:03:16.585Z,5.28
2018-12-15T19:05:44.467Z,8.30
2018-12-15T19:08:12.386Z,6.35
2018-12-15T19:10:40.404Z,6.83
2018-12-15T19:13:08.652Z,5.53
2018-12-15T19:15:36.851Z,5.58
2018-12-15T19:18:04.872Z,7.58
2018-12-15T19:20:32.894Z,6.87
2018-12-15T19:23:00.814Z,6.10
2018-12-15T19:25:28.806Z,8.65
2018-12-15T19:27:57.368Z,7.95
2018-12-15T19:30:25.537Z,5.80
2018-12-15T19:32:54.277Z,7.08
2018-12-15T19:35:23.426Z,7.45
2018-12-15T19:37:51.516Z,5.83
2018-12-15T19:40:19.286Z,7.65
2018-12-15T19:42:48.425Z,4.65
2018-12-15T19:45:16.505Z,4.70
2018-12-15T19:47:44.523Z,6.72
2018-12-15T19:50:16.708Z,5.65
2018-12-15T19:52:45.251Z,4.42
2018-12-15T19:55:13.813Z,5.17
2018-12-15T19:57:41.903Z,8.05
2018-12-15T20:00:11.052Z,5.90
2018-12-15T20:02:39.155Z,6.90
2018-12-15T20:05:07.451Z,8.23
2018-12-15T20:07:35.624Z,6.22
2018-12-15T20:10:04.567Z,5.50
2018-12-15T20:12:33.520Z,7.92
2018-12-15T20:15:03.611Z,4.83
2018-12-15T20:17:33.186Z,8.08
2018-12-15T20:20:01.014Z,7.15
2018-12-15T20:22:29.690Z,7.28
2018-12-15T20:24:57.653Z,7.97
2018-12-15T20:27:26.141Z,6.30
2018-12-15T20:29:54.218Z,5.75
2018-12-15T20:32:22.688Z,8.15
2018-12-15T20:34:50.817Z,6.20
2018-12-15T20:37:19.934Z,8.78
2018-12-15T20:39:47.918Z,5.47
2018-12-15T20:42:16.319Z,7.12
2018-12-15T20:44:44.953Z,5.90
2018-12-15T20:47:12.900Z,5.25
2018-12-15T20:49:41.149Z,4.85
2018-12-15T20:52:09.654Z,4.10
2018-12-15T20:54:38.662Z,7.08
2018-12-15T20:57:08.044Z,5.87
2018-12-15T20:59:37.310Z,6.92
2018-12-15T21:02:05.705Z,6.22
2018-12-15T21:04:34.591Z,5.37
2018-12-15T21:07:03.564Z,6.50
2018-12-15T21:09:31.626Z,7.00
2018-12-15T21:12:00.094Z,8.70
2018-12-15T21:14:28.597Z,6.87
2018-12-15T21:16:56.604Z,5.90
2018-12-15T21:19:24.674Z,7.78
2018-12-15T21:21:52.546Z,5.90
2018-12-15T21:24:20.772Z,6.55
2018-12-15T21:26:48.687Z,6.22
2018-12-15T21:29:16.514Z,5.62
2018-12-15T21:31:44.692Z,5.75
2018-12-15T21:34:14.031Z,3.70
2018-12-15T21:36:42.000Z,7.22
2018-12-15T21:39:10.409Z,5.55
2018-12-15T21:41:39.577Z,4.70
2018-12-15T21:44:07.500Z,4.35
2018-12-15T21:46:35.584Z,6.08
2018-12-15T21:49:04.194Z,3.58
2018-12-15T21:51:32.225Z,3.92
2018-12-15T21:54:00.947Z,1.52
2018-12-15T21:56:29.327Z,6.50
2018-12-15T21:58:57.841Z,6.33
2018-12-15T22:01:26.092Z,6.55
2018-12-15T22:03:54.105Z,5.95
2018-12-15T22:06:22.539Z,4.67
2018-12-15T22:08:50.408Z,6.37
2018-12-15T22:11:18.721Z,6.58
2018-12-15T22:13:46.604Z,5.42
2018-12-15T22:16:14.665Z,6.97
2018-12-15T22:18:42.623Z,4.90
2018-12-15T22:21:11.225Z,4.92
2018-12-15T22:23:39.239Z,3.05
2018-12-15T22:26:07.106Z,3.80
2018-12-15T22:28:34.943Z,5.30
2018-12-15T22:31:03.305Z,4.45
2018-12-15T22:33:31.163Z,3.27
2018-12-15T22:35:59.988Z,4.28
2018-12-15T22:38:29.421Z,2.70
2018-12-15T22:40:58.203Z,5.78
2018-12-15T22:43:27.441Z,7.33
2018-12-15T22:45:56.377Z,4.03
2018-12-15T22:48:26.131Z,4.62
2018-12-15T22:50:54.047Z,6.92
2018-12-15T22:53:23.680Z,3.87
2018-12-15T22:55:52.415Z,7.72
2018-12-15T22:58:20.281Z,6.97
2018-12-15T23:00:54.398Z,2.40
2018-12-15T23:03:22.931Z,7.60
2018-12-15T23:05:51.717Z,7.10
2018-12-15T23:08:19.687Z,4.42
2018-12-15T23:10:47.813Z,7.05
2018-12-15T23:13:15.778Z,5.33
2018-12-15T23:15:43.711Z,7.35
2018-12-15T23:18:11.941Z,5.53
2018-12-15T23:20:39.893Z,7.90
